sensor_id;sensor_type;location;lat;lon;timestamp;P1;durP1;ratioP1;P2;durP2;ratioP2
10880;SDS011;5493;48.884;8.338;2023-02-28T00:00:06;4.47;;;1.90;;
10880;SDS011;5493;48.884;8.338;2023-02-28T00:02:35;2.77;;;2.00;;
10880;SDS011;5493;48.884;8.338;2023-02-28T00:05:02;2.40;;;1.90;;
10880;SDS011;5493;48.884;8.338;2023-02-28T00:07:29;3.37;;;2.00;;
10880;SDS011;5493;48.884;8.338;2023-02-28T00:09:57;2.60;;;1.87;;
10880;SDS011;5493;48.884;8.338;2023-02-28T00:12:25;1.50;;;1.40;;
10880;SDS011;5493;48.884;8.338;2023-02-28T00:14:51;1.67;;;1.53;;
10880;SDS011;5493;48.884;8.338;2023-02-28T00:17:18;4.47;;;1.93;;
10880;SDS011;5493;48.884;8.338;2023-02-28T00:19:46;2.00;;;1.57;;
10880;SDS011;5493;48.884;8.338;2023-02-28T00:22:14;2.63;;;1.77;;
10880;SDS011;5493;48.884;8.338;2023-02-28T00:24:41;2.37;;;1.83;;
10880;SDS011;5493;48.884;8.338;2023-02-28T00:27:09;3.77;;;2.07;;
10880;SDS011;5493;48.884;8.338;2023-02-28T00:29:36;3.33;;;1.93;;
10880;SDS011;5493;48.884;8.338;2023-02-28T00:32:03;2.73;;;2.17;;
10880;SDS011;5493;48.884;8.338;2023-02-28T00:34:31;2.83;;;2.00;;
10880;SDS011;5493;48.884;8.338;2023-02-28T00:37:02;2.60;;;1.70;;
10880;SDS011;5493;48.884;8.338;2023-02-28T00:39:29;2.73;;;2.03;;
10880;SDS011;5493;48.884;8.338;2023-02-28T00:41:56;2.80;;;2.13;;
10880;SDS011;5493;48.884;8.338;2023-02-28T00:44:24;3.73;;;2.27;;
10880;SDS011;5493;48.884;8.338;2023-02-28T00:46:50;2.17;;;1.97;;
10880;SDS011;5493;48.884;8.338;2023-02-28T00:49:19;2.90;;;2.17;;
10880;SDS011;5493;48.884;8.338;2023-02-28T00:51:46;2.40;;;2.00;;
10880;SDS011;5493;48.884;8.338;2023-02-28T00:54:12;2.93;;;1.83;;
10880;SDS011;5493;48.884;8.338;2023-02-28T00:56:39;3.00;;;1.93;;
10880;SDS011;5493;48.884;8.338;2023-02-28T00:59:05;2.50;;;1.80;;
10880;SDS011;5493;48.884;8.338;2023-02-28T01:01:33;4.10;;;2.10;;
10880;SDS011;5493;48.884;8.338;2023-02-28T01:04:00;2.90;;;1.80;;
10880;SDS011;5493;48.884;8.338;2023-02-28T01:06:28;2.53;;;2.00;;
10880;SDS011;5493;48.884;8.338;2023-02-28T01:08:54;2.50;;;1.83;;
10880;SDS011;5493;48.884;8.338;2023-02-28T01:11:21;2.00;;;1.67;;
10880;SDS011;5493;48.884;8.338;2023-02-28T01:13:47;2.23;;;1.87;;
10880;SDS011;5493;48.884;8.338;2023-02-28T01:16:14;2.80;;;1.93;;
10880;SDS011;5493;48.884;8.338;2023-02-28T01:18:42;2.47;;;1.87;;
10880;SDS011;5493;48.884;8.338;2023-02-28T01:21:10;3.37;;;2.27;;
10880;SDS011;5493;48.884;8.338;2023-02-28T01:23:38;1.67;;;1.57;;
10880;SDS011;5493;48.884;8.338;2023-02-28T01:26:05;2.20;;;1.63;;
10880;SDS011;5493;48.884;8.338;2023-02-28T01:28:32;4.43;;;2.07;;
10880;SDS011;5493;48.884;8.338;2023-02-28T01:30:58;3.30;;;2.00;;
10880;SDS011;5493;48.884;8.338;2023-02-28T01:33:25;2.90;;;2.10;;
10880;SDS011;5493;48.884;8.338;2023-02-28T01:35:58;2.63;;;1.93;;
10880;SDS011;5493;48.884;8.338;2023-02-28T01:38:25;2.20;;;2.00;;
10880;SDS011;5493;48.884;8.338;2023-02-28T01:40:52;2.73;;;2.27;;
10880;SDS011;5493;48.884;8.338;2023-02-28T01:43:20;3.63;;;2.27;;
10880;SDS011;5493;48.884;8.338;2023-02-28T01:45:48;2.20;;;1.83;;
10880;SDS011;5493;48.884;8.338;2023-02-28T01:48:15;2.43;;;2.00;;
10880;SDS011;5493;48.884;8.338;2023-02-28T01:50:43;2.20;;;1.90;;
10880;SDS011;5493;48.884;8.338;2023-02-28T01:53:13;2.63;;;2.10;;
10880;SDS011;5493;48.884;8.338;2023-02-28T01:55:45;2.47;;;1.83;;
10880;SDS011;5493;48.884;8.338;2023-02-28T01:58:14;3.77;;;2.30;;
10880;SDS011;5493;48.884;8.338;2023-02-28T02:00:42;2.20;;;2.00;;
10880;SDS011;5493;48.884;8.338;2023-02-28T02:03:09;6.50;;;2.10;;
10880;SDS011;5493;48.884;8.338;2023-02-28T02:05:38;1.87;;;1.60;;
10880;SDS011;5493;48.884;8.338;2023-02-28T02:08:08;2.87;;;2.03;;
10880;SDS011;5493;48.884;8.338;2023-02-28T02:10:41;3.47;;;2.23;;
10880;SDS011;5493;48.884;8.338;2023-02-28T02:16:21;2.17;;;1.87;;
10880;SDS011;5493;48.884;8.338;2023-02-28T02:19:02;3.37;;;1.80;;
10880;SDS011;5493;48.884;8.338;2023-02-28T02:21:47;2.40;;;1.87;;
10880;SDS011;5493;48.884;8.338;2023-02-28T02:27:44;2.57;;;1.87;;
10880;SDS011;5493;48.884;8.338;2023-02-28T02:36:45;1.53;;;1.43;;
10880;SDS011;5493;48.884;8.338;2023-02-28T02:39:18;2.00;;;1.67;;
10880;SDS011;5493;48.884;8.338;2023-02-28T02:41:53;3.43;;;1.93;;
10880;SDS011;5493;48.884;8.338;2023-02-28T02:44:21;3.37;;;2.20;;
10880;SDS011;5493;48.884;8.338;2023-02-28T02:46:51;2.90;;;2.17;;
10880;SDS011;5493;48.884;8.338;2023-02-28T02:49:21;1.97;;;1.60;;
10880;SDS011;5493;48.884;8.338;2023-02-28T02:51:52;3.13;;;2.20;;
10880;SDS011;5493;48.884;8.338;2023-02-28T02:54:22;2.83;;;1.80;;
10880;SDS011;5493;48.884;8.338;2023-02-28T02:56:53;2.77;;;2.00;;
10880;SDS011;5493;48.884;8.338;2023-02-28T02:59:23;2.07;;;1.87;;
10880;SDS011;5493;48.884;8.338;2023-02-28T03:01:52;3.30;;;2.47;;
10880;SDS011;5493;48.884;8.338;2023-02-28T03:04:22;4.00;;;2.20;;
10880;SDS011;5493;48.884;8.338;2023-02-28T03:06:52;2.87;;;2.30;;
10880;SDS011;5493;48.884;8.338;2023-02-28T03:09:20;2.47;;;2.03;;
10880;SDS011;5493;48.884;8.338;2023-02-28T03:11:46;2.70;;;2.23;;
10880;SDS011;5493;48.884;8.338;2023-02-28T03:17:23;1.93;;;1.73;;
10880;SDS011;5493;48.884;8.338;2023-02-28T03:20:12;3.13;;;2.07;;
10880;SDS011;5493;48.884;8.338;2023-02-28T03:22:53;2.80;;;2.07;;
10880;SDS011;5493;48.884;8.338;2023-02-28T03:25:31;4.27;;;2.10;;
10880;SDS011;5493;48.884;8.338;2023-02-28T03:28:05;2.97;;;1.90;;
10880;SDS011;5493;48.884;8.338;2023-02-28T03:30:42;3.03;;;2.20;;
10880;SDS011;5493;48.884;8.338;2023-02-28T03:33:17;3.20;;;2.17;;
10880;SDS011;5493;48.884;8.338;2023-02-28T03:35:48;2.53;;;2.33;;
10880;SDS011;5493;48.884;8.338;2023-02-28T03:38:22;3.20;;;2.23;;
10880;SDS011;5493;48.884;8.338;2023-02-28T03:40:56;3.17;;;2.23;;
10880;SDS011;5493;48.884;8.338;2023-02-28T03:43:28;2.17;;;1.87;;
10880;SDS011;5493;48.884;8.338;2023-02-28T03:45:59;3.30;;;1.93;;
10880;SDS011;5493;48.884;8.338;2023-02-28T03:48:32;4.07;;;2.27;;
10880;SDS011;5493;48.884;8.338;2023-02-28T03:51:03;2.30;;;1.97;;
10880;SDS011;5493;48.884;8.338;2023-02-28T03:53:38;2.83;;;1.97;;
10880;SDS011;5493;48.884;8.338;2023-02-28T03:56:17;3.63;;;2.20;;
10880;SDS011;5493;48.884;8.338;2023-02-28T03:58:47;2.70;;;2.10;;
10880;SDS011;5493;48.884;8.338;2023-02-28T04:01:19;2.33;;;2.07;;
10880;SDS011;5493;48.884;8.338;2023-02-28T04:03:49;2.17;;;1.97;;
10880;SDS011;5493;48.884;8.338;2023-02-28T04:06:17;2.00;;;1.67;;
10880;SDS011;5493;48.884;8.338;2023-02-28T04:08:47;3.17;;;2.10;;
10880;SDS011;5493;48.884;8.338;2023-02-28T04:11:22;3.27;;;2.40;;
10880;SDS011;5493;48.884;8.338;2023-02-28T04:13:52;3.40;;;2.17;;
10880;SDS011;5493;48.884;8.338;2023-02-28T04:16:18;3.03;;;2.50;;
10880;SDS011;5493;48.884;8.338;2023-02-28T04:18:45;2.93;;;2.43;;
10880;SDS011;5493;48.884;8.338;2023-02-28T04:21:11;3.70;;;2.27;;
10880;SDS011;5493;48.884;8.338;2023-02-28T04:23:38;3.37;;;2.37;;
10880;SDS011;5493;48.884;8.338;2023-02-28T04:26:06;2.40;;;2.03;;
10880;SDS011;5493;48.884;8.338;2023-02-28T04:28:33;3.00;;;2.30;;
10880;SDS011;5493;48.884;8.338;2023-02-28T04:31:01;2.30;;;2.10;;
10880;SDS011;5493;48.884;8.338;2023-02-28T04:33:29;3.30;;;2.40;;
10880;SDS011;5493;48.884;8.338;2023-02-28T04:36:00;4.30;;;2.13;;
10880;SDS011;5493;48.884;8.338;2023-02-28T04:38:31;4.03;;;2.53;;
10880;SDS011;5493;48.884;8.338;2023-02-28T04:40:59;3.40;;;2.27;;
10880;SDS011;5493;48.884;8.338;2023-02-28T04:43:28;3.57;;;2.20;;
10880;SDS011;5493;48.884;8.338;2023-02-28T04:45:55;3.63;;;2.10;;
10880;SDS011;5493;48.884;8.338;2023-02-28T04:48:22;3.13;;;2.10;;
10880;SDS011;5493;48.884;8.338;2023-02-28T04:50:49;3.70;;;2.20;;
10880;SDS011;5493;48.884;8.338;2023-02-28T04:53:16;5.23;;;2.67;;
10880;SDS011;5493;48.884;8.338;2023-02-28T04:55:43;3.87;;;2.63;;
10880;SDS011;5493;48.884;8.338;2023-02-28T04:58:10;3.90;;;2.70;;
10880;SDS011;5493;48.884;8.338;2023-02-28T05:00:41;3.30;;;2.53;;
10880;SDS011;5493;48.884;8.338;2023-02-28T05:03:07;4.47;;;2.60;;
10880;SDS011;5493;48.884;8.338;2023-02-28T05:05:34;2.97;;;2.20;;
10880;SDS011;5493;48.884;8.338;2023-02-28T05:08:01;4.17;;;2.63;;
10880;SDS011;5493;48.884;8.338;2023-02-28T05:10:27;4.70;;;2.73;;
10880;SDS011;5493;48.884;8.338;2023-02-28T05:12:54;3.83;;;2.70;;
10880;SDS011;5493;48.884;8.338;2023-02-28T05:15:21;5.70;;;3.27;;
10880;SDS011;5493;48.884;8.338;2023-02-28T05:17:49;4.73;;;2.90;;
10880;SDS011;5493;48.884;8.338;2023-02-28T05:20:15;2.77;;;2.50;;
10880;SDS011;5493;48.884;8.338;2023-02-28T05:22:43;4.17;;;2.73;;
10880;SDS011;5493;48.884;8.338;2023-02-28T05:25:10;5.90;;;3.07;;
10880;SDS011;5493;48.884;8.338;2023-02-28T05:27:40;4.53;;;3.13;;
10880;SDS011;5493;48.884;8.338;2023-02-28T05:30:06;5.83;;;3.17;;
10880;SDS011;5493;48.884;8.338;2023-02-28T05:32:35;4.93;;;2.93;;
10880;SDS011;5493;48.884;8.338;2023-02-28T05:35:03;3.83;;;2.73;;
10880;SDS011;5493;48.884;8.338;2023-02-28T05:37:31;3.80;;;2.90;;
10880;SDS011;5493;48.884;8.338;2023-02-28T05:39:57;3.53;;;2.60;;
10880;SDS011;5493;48.884;8.338;2023-02-28T05:42:24;3.10;;;2.43;;
10880;SDS011;5493;48.884;8.338;2023-02-28T05:44:50;4.53;;;2.90;;
10880;SDS011;5493;48.884;8.338;2023-02-28T05:47:17;3.90;;;2.37;;
10880;SDS011;5493;48.884;8.338;2023-02-28T05:49:44;3.87;;;2.50;;
10880;SDS011;5493;48.884;8.338;2023-02-28T05:52:12;4.50;;;2.83;;
10880;SDS011;5493;48.884;8.338;2023-02-28T05:54:38;3.63;;;2.90;;
10880;SDS011;5493;48.884;8.338;2023-02-28T05:57:05;5.57;;;2.80;;
10880;SDS011;5493;48.884;8.338;2023-02-28T05:59:32;3.60;;;2.40;;
10880;SDS011;5493;48.884;8.338;2023-02-28T06:01:58;3.83;;;2.73;;
10880;SDS011;5493;48.884;8.338;2023-02-28T06:04:25;3.33;;;2.70;;
10880;SDS011;5493;48.884;8.338;2023-02-28T06:06:51;4.63;;;2.70;;
10880;SDS011;5493;48.884;8.338;2023-02-28T06:09:19;5.00;;;3.30;;
10880;SDS011;5493;48.884;8.338;2023-02-28T06:11:46;4.07;;;2.70;;
10880;SDS011;5493;48.884;8.338;2023-02-28T06:14:14;3.53;;;2.57;;
10880;SDS011;5493;48.884;8.338;2023-02-28T06:16:44;3.80;;;2.80;;
10880;SDS011;5493;48.884;8.338;2023-02-28T06:19:11;3.47;;;2.43;;
10880;SDS011;5493;48.884;8.338;2023-02-28T06:21:38;4.03;;;2.77;;
10880;SDS011;5493;48.884;8.338;2023-02-28T06:24:05;5.03;;;2.60;;
10880;SDS011;5493;48.884;8.338;2023-02-28T06:26:33;6.37;;;3.03;;
10880;SDS011;5493;48.884;8.338;2023-02-28T06:29:00;4.20;;;2.77;;
10880;SDS011;5493;48.884;8.338;2023-02-28T06:31:27;5.70;;;2.83;;
10880;SDS011;5493;48.884;8.338;2023-02-28T06:33:54;4.57;;;3.33;;
10880;SDS011;5493;48.884;8.338;2023-02-28T06:36:21;3.70;;;2.60;;
10880;SDS011;5493;48.884;8.338;2023-02-28T06:38:48;5.87;;;3.30;;
10880;SDS011;5493;48.884;8.338;2023-02-28T06:41:19;4.87;;;3.10;;
10880;SDS011;5493;48.884;8.338;2023-02-28T06:43:48;4.17;;;2.83;;
10880;SDS011;5493;48.884;8.338;2023-02-28T06:46:14;4.33;;;2.87;;
10880;SDS011;5493;48.884;8.338;2023-02-28T06:48:42;6.03;;;3.40;;
10880;SDS011;5493;48.884;8.338;2023-02-28T06:51:09;4.17;;;3.07;;
10880;SDS011;5493;48.884;8.338;2023-02-28T06:53:38;3.80;;;3.10;;
10880;SDS011;5493;48.884;8.338;2023-02-28T06:56:06;4.60;;;2.97;;
10880;SDS011;5493;48.884;8.338;2023-02-28T06:58:33;4.57;;;2.60;;
10880;SDS011;5493;48.884;8.338;2023-02-28T07:01:01;4.47;;;2.60;;
10880;SDS011;5493;48.884;8.338;2023-02-28T07:03:29;4.27;;;2.67;;
10880;SDS011;5493;48.884;8.338;2023-02-28T07:05:55;4.77;;;2.83;;
10880;SDS011;5493;48.884;8.338;2023-02-28T07:08:22;4.50;;;2.87;;
10880;SDS011;5493;48.884;8.338;2023-02-28T07:10:51;4.47;;;3.03;;
10880;SDS011;5493;48.884;8.338;2023-02-28T07:13:18;3.50;;;2.83;;
10880;SDS011;5493;48.884;8.338;2023-02-28T07:15:52;6.73;;;3.53;;
10880;SDS011;5493;48.884;8.338;2023-02-28T07:18:20;6.53;;;3.30;;
10880;SDS011;5493;48.884;8.338;2023-02-28T07:20:47;4.80;;;3.13;;
10880;SDS011;5493;48.884;8.338;2023-02-28T07:23:13;2.63;;;2.40;;
10880;SDS011;5493;48.884;8.338;2023-02-28T07:25:40;4.20;;;3.37;;
10880;SDS011;5493;48.884;8.338;2023-02-28T07:28:06;5.77;;;3.63;;
10880;SDS011;5493;48.884;8.338;2023-02-28T07:30:33;3.67;;;2.30;;
10880;SDS011;5493;48.884;8.338;2023-02-28T07:33:00;4.37;;;2.57;;
10880;SDS011;5493;48.884;8.338;2023-02-28T07:35:28;4.87;;;2.87;;
10880;SDS011;5493;48.884;8.338;2023-02-28T07:37:54;3.90;;;2.87;;
10880;SDS011;5493;48.884;8.338;2023-02-28T07:40:23;4.60;;;3.03;;
10880;SDS011;5493;48.884;8.338;2023-02-28T07:42:50;4.70;;;3.10;;
10880;SDS011;5493;48.884;8.338;2023-02-28T07:45:17;5.73;;;3.20;;
10880;SDS011;5493;48.884;8.338;2023-02-28T07:47:44;5.47;;;3.00;;
10880;SDS011;5493;48.884;8.338;2023-02-28T07:50:12;8.80;;;3.70;;
10880;SDS011;5493;48.884;8.338;2023-02-28T07:52:41;4.40;;;3.10;;
10880;SDS011;5493;48.884;8.338;2023-02-28T07:55:08;9.07;;;3.93;;
10880;SDS011;5493;48.884;8.338;2023-02-28T07:57:35;4.50;;;3.10;;
10880;SDS011;5493;48.884;8.338;2023-02-28T08:00:02;4.83;;;3.37;;
10880;SDS011;5493;48.884;8.338;2023-02-28T08:02:30;9.17;;;3.37;;
10880;SDS011;5493;48.884;8.338;2023-02-28T08:04:56;4.40;;;3.00;;
10880;SDS011;5493;48.884;8.338;2023-02-28T08:07:23;4.37;;;3.37;;
10880;SDS011;5493;48.884;8.338;2023-02-28T08:09:51;3.97;;;2.97;;
10880;SDS011;5493;48.884;8.338;2023-02-28T08:12:17;4.63;;;3.60;;
10880;SDS011;5493;48.884;8.338;2023-02-28T08:14:44;6.40;;;3.60;;
10880;SDS011;5493;48.884;8.338;2023-02-28T08:17:11;3.40;;;2.60;;
10880;SDS011;5493;48.884;8.338;2023-02-28T08:19:38;5.73;;;3.43;;
10880;SDS011;5493;48.884;8.338;2023-02-28T08:22:04;4.90;;;3.27;;
10880;SDS011;5493;48.884;8.338;2023-02-28T08:24:31;5.67;;;3.30;;
10880;SDS011;5493;48.884;8.338;2023-02-28T08:26:59;6.37;;;3.73;;
10880;SDS011;5493;48.884;8.338;2023-02-28T08:29:26;5.00;;;3.27;;
10880;SDS011;5493;48.884;8.338;2023-02-28T08:31:52;7.20;;;3.93;;
10880;SDS011;5493;48.884;8.338;2023-02-28T08:34:19;4.80;;;3.43;;
10880;SDS011;5493;48.884;8.338;2023-02-28T08:36:46;4.70;;;3.53;;
10880;SDS011;5493;48.884;8.338;2023-02-28T08:39:12;6.40;;;3.50;;
10880;SDS011;5493;48.884;8.338;2023-02-28T08:41:39;4.00;;;2.27;;
10880;SDS011;5493;48.884;8.338;2023-02-28T08:44:07;6.90;;;3.63;;
10880;SDS011;5493;48.884;8.338;2023-02-28T08:46:34;3.87;;;3.17;;
10880;SDS011;5493;48.884;8.338;2023-02-28T08:49:00;5.10;;;3.40;;
10880;SDS011;5493;48.884;8.338;2023-02-28T08:51:27;6.47;;;3.37;;
10880;SDS011;5493;48.884;8.338;2023-02-28T08:53:54;4.93;;;3.27;;
10880;SDS011;5493;48.884;8.338;2023-02-28T08:56:24;6.80;;;3.40;;
10880;SDS011;5493;48.884;8.338;2023-02-28T08:58:50;5.10;;;3.73;;
10880;SDS011;5493;48.884;8.338;2023-02-28T09:01:22;4.90;;;3.23;;
10880;SDS011;5493;48.884;8.338;2023-02-28T09:03:50;6.17;;;3.23;;
10880;SDS011;5493;48.884;8.338;2023-02-28T09:06:17;4.83;;;3.57;;
10880;SDS011;5493;48.884;8.338;2023-02-28T09:08:45;6.63;;;4.00;;
10880;SDS011;5493;48.884;8.338;2023-02-28T09:11:12;3.87;;;2.90;;
10880;SDS011;5493;48.884;8.338;2023-02-28T09:13:39;5.03;;;3.50;;
10880;SDS011;5493;48.884;8.338;2023-02-28T09:16:06;6.37;;;4.00;;
10880;SDS011;5493;48.884;8.338;2023-02-28T09:18:36;6.70;;;3.97;;
10880;SDS011;5493;48.884;8.338;2023-02-28T09:21:03;5.37;;;3.50;;
10880;SDS011;5493;48.884;8.338;2023-02-28T09:23:31;5.20;;;3.87;;
10880;SDS011;5493;48.884;8.338;2023-02-28T09:25:57;4.17;;;3.53;;
10880;SDS011;5493;48.884;8.338;2023-02-28T09:28:24;7.93;;;4.07;;
10880;SDS011;5493;48.884;8.338;2023-02-28T09:30:51;5.50;;;4.00;;
10880;SDS011;5493;48.884;8.338;2023-02-28T09:33:19;6.93;;;4.07;;
10880;SDS011;5493;48.884;8.338;2023-02-28T09:35:48;5.70;;;3.87;;
10880;SDS011;5493;48.884;8.338;2023-02-28T09:38:15;9.27;;;4.20;;
10880;SDS011;5493;48.884;8.338;2023-02-28T09:40:45;5.20;;;2.90;;
10880;SDS011;5493;48.884;8.338;2023-02-28T09:43:15;10.20;;;4.40;;
10880;SDS011;5493;48.884;8.338;2023-02-28T09:45:47;5.20;;;4.10;;
10880;SDS011;5493;48.884;8.338;2023-02-28T09:48:17;8.33;;;4.13;;
10880;SDS011;5493;48.884;8.338;2023-02-28T09:50:51;6.63;;;4.50;;
10880;SDS011;5493;48.884;8.338;2023-02-28T09:53:26;6.87;;;4.13;;
10880;SDS011;5493;48.884;8.338;2023-02-28T09:55:59;6.30;;;4.57;;
10880;SDS011;5493;48.884;8.338;2023-02-28T09:58:31;6.90;;;4.47;;
10880;SDS011;5493;48.884;8.338;2023-02-28T10:01:03;6.87;;;4.30;;
10880;SDS011;5493;48.884;8.338;2023-02-28T10:03:35;6.23;;;4.10;;
10880;SDS011;5493;48.884;8.338;2023-02-28T10:06:09;6.73;;;4.47;;
10880;SDS011;5493;48.884;8.338;2023-02-28T10:08:41;7.33;;;4.43;;
10880;SDS011;5493;48.884;8.338;2023-02-28T10:11:14;5.70;;;4.17;;
10880;SDS011;5493;48.884;8.338;2023-02-28T10:13:46;7.90;;;4.67;;
10880;SDS011;5493;48.884;8.338;2023-02-28T10:16:20;4.87;;;3.57;;
10880;SDS011;5493;48.884;8.338;2023-02-28T10:18:52;8.37;;;4.97;;
10880;SDS011;5493;48.884;8.338;2023-02-28T10:21:26;7.27;;;4.37;;
10880;SDS011;5493;48.884;8.338;2023-02-28T10:23:59;5.43;;;4.27;;
10880;SDS011;5493;48.884;8.338;2023-02-28T10:26:31;6.13;;;4.57;;
10880;SDS011;5493;48.884;8.338;2023-02-28T10:28:59;6.67;;;4.70;;
10880;SDS011;5493;48.884;8.338;2023-02-28T10:31:27;6.47;;;4.70;;
10880;SDS011;5493;48.884;8.338;2023-02-28T10:33:55;6.70;;;5.10;;
10880;SDS011;5493;48.884;8.338;2023-02-28T10:36:23;7.30;;;4.87;;
10880;SDS011;5493;48.884;8.338;2023-02-28T10:38:51;6.13;;;4.57;;
10880;SDS011;5493;48.884;8.338;2023-02-28T10:41:26;9.30;;;5.57;;
10880;SDS011;5493;48.884;8.338;2023-02-28T10:44:12;6.87;;;5.13;;
10880;SDS011;5493;48.884;8.338;2023-02-28T10:46:41;6.47;;;4.20;;
10880;SDS011;5493;48.884;8.338;2023-02-28T10:49:12;7.03;;;5.30;;
10880;SDS011;5493;48.884;8.338;2023-02-28T10:51:44;5.73;;;4.63;;
10880;SDS011;5493;48.884;8.338;2023-02-28T10:54:15;8.73;;;5.33;;
10880;SDS011;5493;48.884;8.338;2023-02-28T10:56:42;8.30;;;5.60;;
10880;SDS011;5493;48.884;8.338;2023-02-28T10:59:23;9.07;;;5.13;;
10880;SDS011;5493;48.884;8.338;2023-02-28T11:01:53;5.87;;;4.20;;
10880;SDS011;5493;48.884;8.338;2023-02-28T11:04:31;11.87;;;6.43;;
10880;SDS011;5493;48.884;8.338;2023-02-28T11:07:03;8.57;;;5.70;;
10880;SDS011;5493;48.884;8.338;2023-02-28T11:09:32;7.00;;;4.97;;
10880;SDS011;5493;48.884;8.338;2023-02-28T11:12:00;8.47;;;5.20;;
10880;SDS011;5493;48.884;8.338;2023-02-28T11:14:28;6.00;;;3.87;;
10880;SDS011;5493;48.884;8.338;2023-02-28T11:16:57;8.50;;;5.27;;
10880;SDS011;5493;48.884;8.338;2023-02-28T11:19:27;7.17;;;5.33;;
10880;SDS011;5493;48.884;8.338;2023-02-28T11:22:00;6.67;;;4.53;;
10880;SDS011;5493;48.884;8.338;2023-02-28T11:24:31;7.90;;;5.63;;
10880;SDS011;5493;48.884;8.338;2023-02-28T11:27:01;6.63;;;4.07;;
10880;SDS011;5493;48.884;8.338;2023-02-28T11:29:28;7.50;;;5.03;;
10880;SDS011;5493;48.884;8.338;2023-02-28T11:32:11;10.20;;;5.77;;
10880;SDS011;5493;48.884;8.338;2023-02-28T11:34:42;7.37;;;4.90;;
10880;SDS011;5493;48.884;8.338;2023-02-28T11:37:12;10.63;;;5.90;;
10880;SDS011;5493;48.884;8.338;2023-02-28T11:39:41;7.90;;;5.23;;
10880;SDS011;5493;48.884;8.338;2023-02-28T11:42:18;6.93;;;5.50;;
10880;SDS011;5493;48.884;8.338;2023-02-28T11:45:00;6.33;;;5.13;;
10880;SDS011;5493;48.884;8.338;2023-02-28T11:47:42;7.43;;;3.50;;
10880;SDS011;5493;48.884;8.338;2023-02-28T11:50:16;8.80;;;5.03;;
10880;SDS011;5493;48.884;8.338;2023-02-28T11:52:54;7.57;;;5.23;;
10880;SDS011;5493;48.884;8.338;2023-02-28T11:55:24;7.63;;;4.57;;
10880;SDS011;5493;48.884;8.338;2023-02-28T11:58:12;7.83;;;5.43;;
10880;SDS011;5493;48.884;8.338;2023-02-28T12:00:54;6.87;;;5.23;;
10880;SDS011;5493;48.884;8.338;2023-02-28T12:03:26;6.77;;;5.23;;
10880;SDS011;5493;48.884;8.338;2023-02-28T12:06:02;7.20;;;4.50;;
10880;SDS011;5493;48.884;8.338;2023-02-28T12:08:44;7.97;;;6.23;;
10880;SDS011;5493;48.884;8.338;2023-02-28T12:11:19;7.20;;;5.23;;
10880;SDS011;5493;48.884;8.338;2023-02-28T12:13:58;7.67;;;5.60;;
10880;SDS011;5493;48.884;8.338;2023-02-28T12:16:45;7.37;;;5.63;;
10880;SDS011;5493;48.884;8.338;2023-02-28T12:19:21;7.30;;;4.93;;
10880;SDS011;5493;48.884;8.338;2023-02-28T12:21:58;7.50;;;5.63;;
10880;SDS011;5493;48.884;8.338;2023-02-28T12:24:50;8.00;;;6.20;;
10880;SDS011;5493;48.884;8.338;2023-02-28T12:27:28;8.80;;;5.70;;
10880;SDS011;5493;48.884;8.338;2023-02-28T12:29:58;9.40;;;6.13;;
10880;SDS011;5493;48.884;8.338;2023-02-28T12:32:30;10.93;;;6.60;;
10880;SDS011;5493;48.884;8.338;2023-02-28T12:35:00;9.57;;;7.07;;
10880;SDS011;5493;48.884;8.338;2023-02-28T12:37:31;7.17;;;5.77;;
10880;SDS011;5493;48.884;8.338;2023-02-28T12:40:09;9.00;;;5.90;;
10880;SDS011;5493;48.884;8.338;2023-02-28T12:42:39;10.87;;;7.37;;
10880;SDS011;5493;48.884;8.338;2023-02-28T12:45:10;9.00;;;6.63;;
10880;SDS011;5493;48.884;8.338;2023-02-28T12:47:43;8.73;;;6.50;;
10880;SDS011;5493;48.884;8.338;2023-02-28T12:50:12;7.10;;;5.57;;
10880;SDS011;5493;48.884;8.338;2023-02-28T12:52:40;7.60;;;5.60;;
10880;SDS011;5493;48.884;8.338;2023-02-28T12:55:19;5.73;;;5.17;;
10880;SDS011;5493;48.884;8.338;2023-02-28T12:57:53;9.30;;;6.00;;
10880;SDS011;5493;48.884;8.338;2023-02-28T13:00:25;7.60;;;6.13;;
10880;SDS011;5493;48.884;8.338;2023-02-28T13:03:06;8.03;;;5.80;;
10880;SDS011;5493;48.884;8.338;2023-02-28T13:05:56;8.67;;;6.43;;
10880;SDS011;5493;48.884;8.338;2023-02-28T13:08:57;8.10;;;6.23;;
10880;SDS011;5493;48.884;8.338;2023-02-28T13:11:29;9.40;;;6.70;;
10880;SDS011;5493;48.884;8.338;2023-02-28T13:13:58;8.20;;;6.37;;
10880;SDS011;5493;48.884;8.338;2023-02-28T13:16:27;8.37;;;6.13;;
10880;SDS011;5493;48.884;8.338;2023-02-28T13:19:07;7.43;;;5.70;;
10880;SDS011;5493;48.884;8.338;2023-02-28T13:21:41;7.73;;;6.00;;
10880;SDS011;5493;48.884;8.338;2023-02-28T13:24:10;8.20;;;6.20;;
10880;SDS011;5493;48.884;8.338;2023-02-28T13:29:54;8.27;;;5.77;;
10880;SDS011;5493;48.884;8.338;2023-02-28T13:35:12;8.40;;;5.80;;
10880;SDS011;5493;48.884;8.338;2023-02-28T13:38:01;8.50;;;6.17;;
10880;SDS011;5493;48.884;8.338;2023-02-28T13:40:41;12.07;;;7.33;;
10880;SDS011;5493;48.884;8.338;2023-02-28T13:43:08;9.87;;;6.17;;
10880;SDS011;5493;48.884;8.338;2023-02-28T13:45:36;10.53;;;6.47;;
10880;SDS011;5493;48.884;8.338;2023-02-28T13:48:04;8.60;;;5.67;;
10880;SDS011;5493;48.884;8.338;2023-02-28T13:50:43;7.47;;;6.03;;
10880;SDS011;5493;48.884;8.338;2023-02-28T13:53:22;9.43;;;6.10;;
10880;SDS011;5493;48.884;8.338;2023-02-28T13:56:00;6.87;;;5.63;;
10880;SDS011;5493;48.884;8.338;2023-02-28T13:58:39;7.90;;;5.73;;
10880;SDS011;5493;48.884;8.338;2023-02-28T14:01:24;8.00;;;5.43;;
10880;SDS011;5493;48.884;8.338;2023-02-28T14:04:14;10.10;;;6.07;;
10880;SDS011;5493;48.884;8.338;2023-02-28T14:07:05;13.40;;;7.00;;
10880;SDS011;5493;48.884;8.338;2023-02-28T14:09:34;9.43;;;5.83;;
10880;SDS011;5493;48.884;8.338;2023-02-28T14:17:56;7.20;;;6.00;;
10880;SDS011;5493;48.884;8.338;2023-02-28T14:20:26;8.13;;;6.00;;
10880;SDS011;5493;48.884;8.338;2023-02-28T14:22:56;7.27;;;5.50;;
10880;SDS011;5493;48.884;8.338;2023-02-28T14:25:33;10.17;;;5.87;;
10880;SDS011;5493;48.884;8.338;2023-02-28T14:28:10;8.57;;;6.20;;
10880;SDS011;5493;48.884;8.338;2023-02-28T14:30:56;7.67;;;5.57;;
10880;SDS011;5493;48.884;8.338;2023-02-28T14:33:34;10.33;;;6.67;;
10880;SDS011;5493;48.884;8.338;2023-02-28T14:36:13;10.10;;;6.90;;
10880;SDS011;5493;48.884;8.338;2023-02-28T14:38:46;7.87;;;5.43;;
10880;SDS011;5493;48.884;8.338;2023-02-28T14:41:20;8.83;;;6.50;;
10880;SDS011;5493;48.884;8.338;2023-02-28T14:43:49;7.53;;;5.53;;
10880;SDS011;5493;48.884;8.338;2023-02-28T14:46:21;8.33;;;6.07;;
10880;SDS011;5493;48.884;8.338;2023-02-28T14:48:51;7.43;;;6.23;;
10880;SDS011;5493;48.884;8.338;2023-02-28T14:51:18;9.03;;;6.77;;
10880;SDS011;5493;48.884;8.338;2023-02-28T14:53:48;7.47;;;5.67;;
10880;SDS011;5493;48.884;8.338;2023-02-28T14:56:19;8.17;;;6.13;;
10880;SDS011;5493;48.884;8.338;2023-02-28T14:58:50;8.60;;;6.50;;
10880;SDS011;5493;48.884;8.338;2023-02-28T15:01:19;7.03;;;5.73;;
10880;SDS011;5493;48.884;8.338;2023-02-28T15:03:46;9.50;;;5.67;;
10880;SDS011;5493;48.884;8.338;2023-02-28T15:06:15;7.67;;;5.77;;
10880;SDS011;5493;48.884;8.338;2023-02-28T15:08:42;9.27;;;6.47;;
10880;SDS011;5493;48.884;8.338;2023-02-28T15:11:12;9.23;;;6.43;;
10880;SDS011;5493;48.884;8.338;2023-02-28T15:13:41;9.23;;;6.17;;
10880;SDS011;5493;48.884;8.338;2023-02-28T15:16:11;7.47;;;5.80;;
10880;SDS011;5493;48.884;8.338;2023-02-28T15:18:44;7.40;;;5.17;;
10880;SDS011;5493;48.884;8.338;2023-02-28T15:21:16;8.93;;;6.73;;
10880;SDS011;5493;48.884;8.338;2023-02-28T15:23:45;8.37;;;6.73;;
10880;SDS011;5493;48.884;8.338;2023-02-28T15:26:15;8.23;;;5.37;;
10880;SDS011;5493;48.884;8.338;2023-02-28T15:28:44;8.20;;;6.10;;
10880;SDS011;5493;48.884;8.338;2023-02-28T15:31:19;8.37;;;5.73;;
10880;SDS011;5493;48.884;8.338;2023-02-28T15:33:52;8.00;;;6.23;;
10880;SDS011;5493;48.884;8.338;2023-02-28T15:36:23;8.70;;;5.73;;
10880;SDS011;5493;48.884;8.338;2023-02-28T15:38:52;8.00;;;6.13;;
10880;SDS011;5493;48.884;8.338;2023-02-28T15:41:27;8.80;;;6.63;;
10880;SDS011;5493;48.884;8.338;2023-02-28T15:46:52;7.87;;;5.90;;
10880;SDS011;5493;48.884;8.338;2023-02-28T15:49:21;9.30;;;6.23;;